createdAt,value
2019-03-15T00:00:29.587Z,76.25
2019-03-15T00:03:04.523Z,75.95
2019-03-15T00:05:39.344Z,76.13
2019-03-15T00:08:14.281Z,76.50
2019-03-15T00:10:49.310Z,76.08
2019-03-15T00:13:24.243Z,76.10
2019-03-15T00:15:59.076Z,76.67
2019-03-15T00:18:34.013Z,76.57
2019-03-15T00:21:08.941Z,76.89
2019-03-15T00:23:43.871Z,76.94
2019-03-15T00:26:18.804Z,76.62
2019-03-15T00:28:54.043Z,76.81
2019-03-15T00:31:29.077Z,76.82
2019-03-15T00:34:04.015Z,76.82
2019-03-15T00:36:38.839Z,76.92
2019-03-15T00:39:13.777Z,76.81
2019-03-15T00:41:48.806Z,77.12
2019-03-15T00:44:23.593Z,77.09
2019-03-15T00:46:58.465Z,77.11
2019-03-15T00:49:33.403Z,77.28
2019-03-15T00:52:08.233Z,77.68
2019-03-15T00:54:43.060Z,77.24
2019-03-15T00:57:17.888Z,77.41
2019-03-15T00:59:53.063Z,77.27
2019-03-15T01:02:28.062Z,77.23
2019-03-15T01:05:02.892Z,77.33
2019-03-15T01:07:38.027Z,77.15
2019-03-15T01:10:13.375Z,76.92
2019-03-15T01:12:48.307Z,77.14
2019-03-15T01:15:23.136Z,76.79
2019-03-15T01:17:58.683Z,76.76
2019-03-15T01:20:33.671Z,77.01
2019-03-15T01:23:08.675Z,76.83
2019-03-15T01:25:44.496Z,76.77
2019-03-15T01:28:19.431Z,76.80
2019-03-15T01:30:54.672Z,76.56
2019-03-15T01:33:30.429Z,76.44
2019-03-15T01:36:05.361Z,76.47
2019-03-15T01:38:40.291Z,76.15
2019-03-15T01:41:15.122Z,76.63
2019-03-15T01:43:49.911Z,76.51
2019-03-15T01:46:24.922Z,76.24
2019-03-15T01:48:59.919Z,76.10
2019-03-15T01:51:34.745Z,76.00
2019-03-15T01:54:09.575Z,76.10
2019-03-15T01:56:44.519Z,76.09
2019-03-15T01:59:19.441Z,76.44
2019-03-15T02:01:54.685Z,76.46
2019-03-15T02:04:29.616Z,76.40
2019-03-15T02:07:04.549Z,76.87
2019-03-15T02:09:39.479Z,76.77
2019-03-15T02:12:14.412Z,76.81
2019-03-15T02:14:49.347Z,76.90
2019-03-15T02:17:24.588Z,77.01
2019-03-15T02:20:00.028Z,77.38
2019-03-15T02:22:34.854Z,76.71
2019-03-15T02:25:09.689Z,76.79
2019-03-15T02:27:45.641Z,76.93
2019-03-15T02:30:20.477Z,76.72
2019-03-15T02:32:55.408Z,77.04
2019-03-15T02:35:30.237Z,76.74
2019-03-15T02:38:05.064Z,77.27
2019-03-15T02:40:39.888Z,77.45
2019-03-15T02:43:15.952Z,77.57
2019-03-15T02:45:50.984Z,76.97
2019-03-15T02:48:25.879Z,77.45
2019-03-15T02:51:00.749Z,76.78
2019-03-15T02:53:35.893Z,77.26
2019-03-15T02:56:10.836Z,77.18
2019-03-15T02:58:45.765Z,77.71
2019-03-15T03:01:21.912Z,78.21
2019-03-15T03:03:56.744Z,78.03
2019-03-15T03:06:31.579Z,77.81
2019-03-15T03:09:07.811Z,77.71
2019-03-15T03:11:42.877Z,77.97
2019-03-15T03:14:17.701Z,77.99
2019-03-15T03:16:53.661Z,77.84
2019-03-15T03:19:28.518Z,78.02
2019-03-15T03:22:03.426Z,77.72
2019-03-15T03:24:38.249Z,77.59
2019-03-15T03:27:13.091Z,77.50
2019-03-15T03:29:48.017Z,77.74
2019-03-15T03:32:22.841Z,77.47
2019-03-15T03:34:58.088Z,77.19
2019-03-15T03:37:32.911Z,77.80
2019-03-15T03:40:08.255Z,78.17
2019-03-15T03:42:43.297Z,78.51
2019-03-15T03:45:18.226Z,78.63
2019-03-15T03:47:53.158Z,78.71
2019-03-15T03:50:27.987Z,79.29
2019-03-15T03:53:03.434Z,79.20
2019-03-15T03:55:38.564Z,79.21
2019-03-15T03:58:13.501Z,79.49
2019-03-15T04:00:48.330Z,79.92
2019-03-15T04:03:23.365Z,79.90
2019-03-15T04:05:58.305Z,80.32
2019-03-15T04:08:33.333Z,80.46
2019-03-15T04:11:08.676Z,80.00
2019-03-15T04:13:43.602Z,79.89
2019-03-15T04:16:18.534Z,79.51
2019-03-15T04:18:53.474Z,80.54
2019-03-15T04:21:28.404Z,79.75
2019-03-15T04:24:03.229Z,80.17
2019-03-15T04:26:38.165Z,80.59
2019-03-15T04:29:13.102Z,80.44
2019-03-15T04:31:47.924Z,81.48
2019-03-15T04:34:22.867Z,81.48
2019-03-15T04:36:57.854Z,82.01
2019-03-15T04:39:32.720Z,82.20
2019-03-15T04:42:07.550Z,82.08
2019-03-15T04:44:42.401Z,82.00
2019-03-15T04:47:17.215Z,82.15
2019-03-15T04:49:52.143Z,82.57
2019-03-15T04:52:27.083Z,82.35
2019-03-15T04:55:01.904Z,82.71
2019-03-15T04:57:36.750Z,82.45
2019-03-15T05:00:14.637Z,82.48
2019-03-15T05:02:50.372Z,81.37
2019-03-15T05:05:25.599Z,80.97
2019-03-15T05:08:00.566Z,80.58
2019-03-15T05:10:35.599Z,80.43
2019-03-15T05:13:10.532Z,80.60
2019-03-15T05:15:45.460Z,80.63
2019-03-15T05:18:20.398Z,80.20
2019-03-15T05:20:55.328Z,80.05
2019-03-15T05:23:30.261Z,78.50
2019-03-15T05:26:05.095Z,78.62
2019-03-15T05:28:40.024Z,78.33
2019-03-15T05:31:15.059Z,77.81
2019-03-15T05:34:16.284Z,76.42
2019-03-15T05:36:52.125Z,74.94
2019-03-15T05:39:28.194Z,75.00
2019-03-15T05:42:04.134Z,74.58
2019-03-15T05:44:39.903Z,74.30
2019-03-15T05:47:15.741Z,73.98
2019-03-15T05:49:52.017Z,72.87
2019-03-15T05:52:28.076Z,73.22
2019-03-15T05:55:08.182Z,72.84
2019-03-15T05:57:43.974Z,72.81
2019-03-15T06:00:19.934Z,71.99
2019-03-15T06:02:55.798Z,71.77
2019-03-15T06:05:32.152Z,71.43
2019-03-15T06:08:07.963Z,70.71
2019-03-15T06:10:44.274Z,70.56
2019-03-15T06:13:20.043Z,70.91
2019-03-15T06:15:55.799Z,69.98
2019-03-15T06:18:31.585Z,70.26
2019-03-15T06:21:07.384Z,69.29
2019-03-15T06:23:43.147Z,68.58
2019-03-15T06:26:18.986Z,68.98
2019-03-15T06:28:54.946Z,68.38
2019-03-15T06:31:30.709Z,68.56
2019-03-15T06:34:06.453Z,67.85
2019-03-15T06:36:42.305Z,67.67
2019-03-15T06:39:18.369Z,67.06
2019-03-15T06:41:54.838Z,67.05
2019-03-15T06:44:30.686Z,66.93
2019-03-15T06:47:06.525Z,67.19
2019-03-15T06:49:42.299Z,66.51
2019-03-15T06:52:18.154Z,66.67
2019-03-15T06:54:53.990Z,67.21
2019-03-15T06:57:30.778Z,66.70
2019-03-15T07:00:09.803Z,65.88
2019-03-15T07:02:46.203Z,66.27
2019-03-15T07:05:22.223Z,66.70
2019-03-15T07:07:58.067Z,66.13
2019-03-15T07:10:33.924Z,65.44
2019-03-15T07:13:09.784Z,65.23
2019-03-15T07:15:45.553Z,65.08
2019-03-15T07:18:21.904Z,64.63
2019-03-15T07:20:57.759Z,64.11
2019-03-15T07:23:33.654Z,64.06
2019-03-15T07:26:09.599Z,64.37
2019-03-15T07:28:45.520Z,63.97
2019-03-15T07:31:21.589Z,63.37
2019-03-15T07:33:57.443Z,63.37
2019-03-15T07:36:33.214Z,63.07
2019-03-15T07:39:08.970Z,63.27
2019-03-15T07:41:44.740Z,62.61
2019-03-15T07:44:20.521Z,62.75
2019-03-15T07:46:56.259Z,63.52
2019-03-15T07:49:32.336Z,63.64
2019-03-15T07:52:09.443Z,63.53
2019-03-15T07:54:45.188Z,63.60
2019-03-15T07:57:22.488Z,63.58
2019-03-15T07:59:58.325Z,63.30
2019-03-15T08:02:34.085Z,62.75
2019-03-15T08:05:10.010Z,63.31
2019-03-15T08:07:46.027Z,62.85
2019-03-15T08:10:21.854Z,62.81
2019-03-15T08:12:57.675Z,62.40
2019-03-15T08:15:33.667Z,62.02
2019-03-15T08:18:09.759Z,61.60
2019-03-15T08:20:45.575Z,60.99
2019-03-15T08:23:21.429Z,60.92
2019-03-15T08:25:57.296Z,60.74
2019-03-15T08:28:33.143Z,61.15
2019-03-15T08:31:08.994Z,60.88
2019-03-15T08:33:44.848Z,61.11
2019-03-15T08:36:20.685Z,61.71
2019-03-15T08:38:56.540Z,61.78
2019-03-15T08:41:32.402Z,61.50
2019-03-15T08:44:08.251Z,61.59
2019-03-15T08:46:44.222Z,61.88
2019-03-15T08:49:20.134Z,61.80
2019-03-15T08:52:03.750Z,62.12
2019-03-15T08:54:33.404Z,62.06
2019-03-15T08:57:10.495Z,62.98
2019-03-15T08:59:54.167Z,62.00
2019-03-15T09:02:23.765Z,62.00
2019-03-15T09:04:59.565Z,60.62
2019-03-15T09:07:35.451Z,60.79
2019-03-15T09:10:22.440Z,61.19
2019-03-15T09:12:50.533Z,60.57
2019-03-15T09:15:26.226Z,60.73
2019-03-15T09:18:02.035Z,61.04
2019-03-15T09:20:37.799Z,60.29
2019-03-15T09:23:14.659Z,59.95
2019-03-15T09:25:50.438Z,59.62
2019-03-15T09:28:26.382Z,60.60
2019-03-15T09:31:02.130Z,60.72
2019-03-15T09:33:37.906Z,59.82
2019-03-15T09:36:14.096Z,59.50
2019-03-15T09:38:49.899Z,60.04
2019-03-15T09:41:32.055Z,60.05
2019-03-15T09:44:03.252Z,59.55
2019-03-15T09:46:39.002Z,59.68
2019-03-15T09:49:14.801Z,58.60
2019-03-15T09:51:51.626Z,59.00
2019-03-15T09:54:27.487Z,58.87
2019-03-15T09:57:03.841Z,58.44
2019-03-15T09:59:39.794Z,57.67
2019-03-15T10:02:15.625Z,58.05
2019-03-15T10:04:52.095Z,57.62
2019-03-15T10:07:37.701Z,57.99
2019-03-15T10:10:13.955Z,57.05
2019-03-15T10:12:46.654Z,56.91
2019-03-15T10:15:22.493Z,56.27
2019-03-15T10:17:58.419Z,56.75
2019-03-15T10:20:34.510Z,56.79
2019-03-15T10:23:10.267Z,55.57
2019-03-15T10:25:49.818Z,55.94
2019-03-15T10:28:23.563Z,56.01
2019-03-15T10:30:59.339Z,55.37
2019-03-15T10:33:49.523Z,55.86
2019-03-15T10:36:13.674Z,56.71
2019-03-15T10:38:49.431Z,54.84
2019-03-15T10:41:25.232Z,55.88
2019-03-15T10:44:04.052Z,54.59
2019-03-15T10:46:40.521Z,53.91
2019-03-15T10:49:16.796Z,53.84
2019-03-15T10:51:53.061Z,54.05
2019-03-15T10:54:28.778Z,55.24
2019-03-15T10:57:04.524Z,54.45
2019-03-15T10:59:40.318Z,54.64
2019-03-15T11:02:16.168Z,55.29
2019-03-15T11:04:52.232Z,55.37
2019-03-15T11:07:29.631Z,54.60
2019-03-15T11:10:07.455Z,54.46
2019-03-15T11:12:44.594Z,54.07
2019-03-15T11:15:20.445Z,53.84
2019-03-15T11:17:56.552Z,54.61
2019-03-15T11:20:32.245Z,54.19
2019-03-15T11:23:08.137Z,53.85
2019-03-15T11:25:43.843Z,54.15
2019-03-15T11:28:19.730Z,53.10
2019-03-15T11:30:55.480Z,52.14
2019-03-15T11:33:31.324Z,52.77
2019-03-15T11:36:07.092Z,52.65
2019-03-15T11:38:42.963Z,52.31
2019-03-15T11:41:18.806Z,51.94
2019-03-15T11:43:54.640Z,52.23
2019-03-15T11:46:30.512Z,51.69
2019-03-15T11:49:06.819Z,50.78
2019-03-15T11:51:42.841Z,49.67
2019-03-15T11:54:18.556Z,49.79
2019-03-15T11:56:54.316Z,48.75
2019-03-15T11:59:30.123Z,50.01
2019-03-15T12:02:05.948Z,49.14
2019-03-15T12:04:41.679Z,48.46
2019-03-15T12:07:17.975Z,49.20
2019-03-15T12:09:53.769Z,49.18
2019-03-15T12:12:29.658Z,49.31
2019-03-15T12:15:08.538Z,49.79
2019-03-15T12:17:44.441Z,50.21
2019-03-15T12:20:20.491Z,50.87
2019-03-15T12:22:56.215Z,50.63
2019-03-15T12:25:32.102Z,51.09
2019-03-15T12:28:07.957Z,49.65
2019-03-15T12:30:43.799Z,49.75
2019-03-15T12:33:19.652Z,49.33
2019-03-15T12:35:55.516Z,50.08
2019-03-15T12:38:31.364Z,49.48
2019-03-15T12:41:07.320Z,49.63
2019-03-15T12:43:43.097Z,49.26
2019-03-15T12:46:18.870Z,48.14
2019-03-15T12:48:54.823Z,48.98
2019-03-15T12:51:32.336Z,49.16
2019-03-15T12:54:08.229Z,48.46
2019-03-15T12:56:53.601Z,48.59
2019-03-15T12:59:21.681Z,48.55
2019-03-15T13:01:57.551Z,48.55
2019-03-15T13:04:33.376Z,47.68
2019-03-15T13:07:09.346Z,47.96
2019-03-15T13:09:45.137Z,48.49
2019-03-15T13:12:21.314Z,47.97
2019-03-15T13:14:57.221Z,47.76
2019-03-15T13:17:33.363Z,49.05
2019-03-15T13:20:11.681Z,47.93
2019-03-15T13:22:48.436Z,48.26
2019-03-15T13:25:24.208Z,47.35
2019-03-15T13:28:00.380Z,48.10
2019-03-15T13:30:36.513Z,47.88
2019-03-15T13:33:20.309Z,48.24
2019-03-15T13:35:49.845Z,48.80
2019-03-15T13:38:25.726Z,48.24
2019-03-15T13:41:01.894Z,47.90
2019-03-15T13:43:37.731Z,48.99
2019-03-15T13:46:13.874Z,47.95
2019-03-15T13:48:49.765Z,46.86
2019-03-15T13:51:25.621Z,47.07
2019-03-15T13:54:01.419Z,48.03
2019-03-15T13:56:37.244Z,47.45
2019-03-15T13:59:13.337Z,46.62
2019-03-15T14:01:49.355Z,46.57
2019-03-15T14:04:25.114Z,46.36
2019-03-15T14:07:00.945Z,46.86
2019-03-15T14:09:36.806Z,46.98
2019-03-15T14:12:12.959Z,47.18
2019-03-15T14:14:48.684Z,45.67
2019-03-15T14:17:24.490Z,44.65
2019-03-15T14:20:00.384Z,44.50
2019-03-15T14:22:36.146Z,44.72
2019-03-15T14:25:18.235Z,45.52
2019-03-15T14:27:54.126Z,44.30
2019-03-15T14:30:29.880Z,44.66
2019-03-15T14:33:05.694Z,45.53
2019-03-15T14:35:41.687Z,45.87
2019-03-15T14:38:17.848Z,46.88
2019-03-15T14:40:53.708Z,46.55
2019-03-15T14:43:29.939Z,46.96
2019-03-15T14:46:05.890Z,47.52
2019-03-15T14:48:41.784Z,48.00
2019-03-15T14:51:17.621Z,48.43
2019-03-15T14:53:53.662Z,48.66
2019-03-15T14:56:30.165Z,48.96
2019-03-15T14:59:06.108Z,48.86
2019-03-15T15:01:42.861Z,49.01
2019-03-15T15:04:18.650Z,49.41
2019-03-15T15:06:54.497Z,48.74
2019-03-15T15:09:30.762Z,48.75
2019-03-15T15:12:07.188Z,49.63
2019-03-15T15:14:42.978Z,49.79
2019-03-15T15:17:19.039Z,48.70
2019-03-15T15:19:54.910Z,48.63
2019-03-15T15:22:30.702Z,49.25
2019-03-15T15:25:09.187Z,49.48
2019-03-15T15:27:45.022Z,49.38
2019-03-15T15:30:21.809Z,49.04
2019-03-15T15:32:57.541Z,49.70
2019-03-15T15:35:33.273Z,49.90
2019-03-15T15:38:09.011Z,50.91
2019-03-15T15:40:45.795Z,51.08
2019-03-15T15:43:21.677Z,50.90
2019-03-15T15:45:57.447Z,50.95
2019-03-15T15:48:33.243Z,50.27
2019-03-15T15:51:09.170Z,50.94
2019-03-15T15:53:44.985Z,50.89
2019-03-15T15:56:20.722Z,50.63
2019-03-15T15:58:56.591Z,50.89
2019-03-15T16:01:32.440Z,50.69
2019-03-15T16:04:08.243Z,51.26
2019-03-15T16:06:44.471Z,51.54
2019-03-15T16:09:20.279Z,51.50
2019-03-15T16:11:56.220Z,51.06
2019-03-15T16:14:32.002Z,51.51
2019-03-15T16:17:07.942Z,51.92
2019-03-15T16:19:43.827Z,52.21
2019-03-15T16:22:19.865Z,52.37
2019-03-15T16:24:56.543Z,52.34
2019-03-15T16:27:32.371Z,52.00
2019-03-15T16:30:19.325Z,52.47
2019-03-15T16:32:55.182Z,52.45
2019-03-15T16:35:31.150Z,52.67
2019-03-15T16:38:07.691Z,53.08
2019-03-15T16:40:43.582Z,53.26
2019-03-15T16:43:19.764Z,53.46
2019-03-15T16:45:55.628Z,53.81
2019-03-15T16:48:32.051Z,54.20
2019-03-15T16:51:19.089Z,54.29
2019-03-15T16:53:45.271Z,54.65
2019-03-15T16:56:21.008Z,54.93
2019-03-15T16:58:56.817Z,55.25
2019-03-15T17:01:32.647Z,55.58
2019-03-15T17:04:08.864Z,55.77
2019-03-15T17:06:44.757Z,55.91
2019-03-15T17:09:20.603Z,55.95
2019-03-15T17:11:56.437Z,55.83
2019-03-15T17:14:32.260Z,56.08
2019-03-15T17:17:08.037Z,56.82
2019-03-15T17:19:43.833Z,56.87
2019-03-15T17:22:19.601Z,56.84
2019-03-15T17:24:55.384Z,56.76
2019-03-15T17:27:32.315Z,56.55
2019-03-15T17:30:11.080Z,56.73
2019-03-15T17:32:46.848Z,56.57
2019-03-15T17:35:22.581Z,56.41
2019-03-15T17:37:58.387Z,56.35
2019-03-15T17:40:34.153Z,56.18
2019-03-15T17:43:09.976Z,56.10
2019-03-15T17:45:45.802Z,55.96
2019-03-15T17:48:21.711Z,56.23
2019-03-15T17:50:57.570Z,56.33
2019-03-15T17:53:33.607Z,56.40
2019-03-15T17:56:09.539Z,56.32
2019-03-15T17:58:45.428Z,56.45
2019-03-15T18:01:21.282Z,56.61
2019-03-15T18:03:57.270Z,56.86
2019-03-15T18:06:33.200Z,56.81
2019-03-15T18:09:09.069Z,56.87
2019-03-15T18:11:44.906Z,56.88
2019-03-15T18:14:20.817Z,56.98
2019-03-15T18:16:56.911Z,57.09
2019-03-15T18:19:32.828Z,57.45
2019-03-15T18:22:08.738Z,57.83
2019-03-15T18:24:44.481Z,57.33
2019-03-15T18:27:20.335Z,57.46
2019-03-15T18:29:57.313Z,57.58
2019-03-15T18:32:33.185Z,57.59
2019-03-15T18:35:10.321Z,57.42
2019-03-15T18:37:46.207Z,57.76
2019-03-15T18:40:21.959Z,59.23
2019-03-15T18:42:57.914Z,59.45
2019-03-15T18:45:33.671Z,60.02
2019-03-15T18:48:09.523Z,60.24
2019-03-15T18:50:45.879Z,60.34
2019-03-15T18:53:22.154Z,60.15
2019-03-15T18:55:58.528Z,60.30
2019-03-15T18:58:34.484Z,60.44
2019-03-15T19:01:10.395Z,60.73
2019-03-15T19:03:46.285Z,60.74
2019-03-15T19:06:22.029Z,60.70
2019-03-15T19:08:58.089Z,60.98
2019-03-15T19:11:34.209Z,61.18
2019-03-15T19:14:10.048Z,61.29
2019-03-15T19:16:46.464Z,61.41
2019-03-15T19:19:22.537Z,61.46
2019-03-15T19:21:58.407Z,61.46
2019-03-15T19:24:34.295Z,61.76
2019-03-15T19:27:10.087Z,61.64
2019-03-15T19:29:53.749Z,61.75
2019-03-15T19:32:23.555Z,61.80
2019-03-15T19:35:00.157Z,61.96
2019-03-15T19:37:35.983Z,62.03
2019-03-15T19:40:16.754Z,62.14
2019-03-15T19:42:52.636Z,62.05
2019-03-15T19:45:28.442Z,61.78
2019-03-15T19:48:04.170Z,61.99
2019-03-15T19:50:40.134Z,61.96
2019-03-15T19:53:20.294Z,62.05
2019-03-15T19:55:56.164Z,61.96
2019-03-15T19:58:31.995Z,62.03
2019-03-15T20:01:08.024Z,62.18
2019-03-15T20:03:44.565Z,62.26
2019-03-15T20:06:20.712Z,62.38
2019-03-15T20:08:56.771Z,62.93
2019-03-15T20:11:32.617Z,63.44
2019-03-15T20:14:08.435Z,64.78
2019-03-15T20:16:45.670Z,66.35
2019-03-15T20:19:21.510Z,67.08
2019-03-15T20:21:57.366Z,67.26
2019-03-15T20:24:36.531Z,68.51
2019-03-15T20:27:10.933Z,68.63
2019-03-15T20:29:46.840Z,68.50
2019-03-15T20:32:22.655Z,69.32
2019-03-15T20:34:58.436Z,70.09
2019-03-15T20:37:34.248Z,70.51
2019-03-15T20:40:11.834Z,71.36
2019-03-15T20:42:47.762Z,72.33
2019-03-15T20:45:25.951Z,73.08
2019-03-15T20:48:02.400Z,73.77
2019-03-15T20:50:46.606Z,74.59
2019-03-15T20:53:15.953Z,75.35
2019-03-15T20:55:52.062Z,75.83
2019-03-15T20:58:27.976Z,76.09
2019-03-15T21:01:03.778Z,76.67
2019-03-15T21:03:39.536Z,76.70
2019-03-15T21:06:15.378Z,76.82
2019-03-15T21:08:51.336Z,77.21
2019-03-15T21:11:27.301Z,77.64
2019-03-15T21:14:03.151Z,77.78
2019-03-15T21:16:40.238Z,77.79
2019-03-15T21:19:16.082Z,78.01
2019-03-15T21:21:51.933Z,78.55
2019-03-15T21:24:28.110Z,78.21
2019-03-15T21:27:03.962Z,78.14
2019-03-15T21:29:40.118Z,78.52
2019-03-15T21:32:16.378Z,78.79
2019-03-15T21:34:52.342Z,78.92
2019-03-15T21:37:29.790Z,79.28
2019-03-15T21:40:08.864Z,79.42
2019-03-15T21:42:44.710Z,79.20
2019-03-15T21:45:20.963Z,79.77
2019-03-15T21:47:56.916Z,78.97
2019-03-15T21:50:33.198Z,78.71
2019-03-15T21:53:09.252Z,78.67
2019-03-15T21:55:45.098Z,78.39
2019-03-15T21:58:20.967Z,78.85
2019-03-15T22:01:02.571Z,78.68
2019-03-15T22:03:34.807Z,78.12
2019-03-15T22:06:10.673Z,78.57
2019-03-15T22:08:46.390Z,77.69
2019-03-15T22:11:22.179Z,76.83
2019-03-15T22:13:59.052Z,77.60
2019-03-15T22:16:34.902Z,78.10
2019-03-15T22:19:10.870Z,78.53
2019-03-15T22:21:47.322Z,71.59
2019-03-15T22:24:23.087Z,67.57
2019-03-15T22:27:00.007Z,68.06
2019-03-15T22:29:35.746Z,65.18
2019-03-15T22:32:11.558Z,64.54
2019-03-15T22:34:47.323Z,65.20
2019-03-15T22:37:23.532Z,64.89
2019-03-15T22:39:59.420Z,63.67
2019-03-15T22:42:35.699Z,61.89
2019-03-15T22:45:12.583Z,60.73
2019-03-15T22:47:51.365Z,59.91
2019-03-15T22:50:26.032Z,59.33
2019-03-15T22:53:01.776Z,59.83
2019-03-15T22:55:37.635Z,59.37
2019-03-15T22:58:13.489Z,58.24
2019-03-15T23:00:49.948Z,57.77
2019-03-15T23:03:26.165Z,57.63
2019-03-15T23:06:01.964Z,58.27
2019-03-15T23:08:38.025Z,58.72
2019-03-15T23:11:13.886Z,58.43
2019-03-15T23:13:49.730Z,58.35
2019-03-15T23:16:25.479Z,59.19
2019-03-15T23:19:01.250Z,60.80
2019-03-15T23:21:37.095Z,60.44
2019-03-15T23:24:13.754Z,60.13
2019-03-15T23:26:49.520Z,59.64
2019-03-15T23:29:25.372Z,59.85
2019-03-15T23:32:01.738Z,59.85
2019-03-15T23:34:38.606Z,59.60
2019-03-15T23:37:14.464Z,59.81
2019-03-15T23:39:50.321Z,59.55
2019-03-15T23:42:26.188Z,60.30
2019-03-15T23:45:02.027Z,59.60
2019-03-15T23:47:37.771Z,59.78
2019-03-15T23:50:15.172Z,60.10
2019-03-15T23:52:50.913Z,59.98
2019-03-15T23:55:27.283Z,59.87
2019-03-15T23:58:03.155Z,60.16
